createdAt,value
2019-06-26T00:01:31.900Z,40.23
2019-06-26T00:03:58.088Z,40.47
2019-06-26T00:06:24.294Z,40.11
2019-06-26T00:08:50.444Z,41.30
2019-06-26T00:11:16.623Z,41.29
2019-06-26T00:13:42.812Z,41.65
2019-06-26T00:16:08.971Z,42.11
2019-06-26T00:18:35.139Z,41.01
2019-06-26T00:21:01.334Z,41.38
2019-06-26T00:23:27.508Z,40.98
2019-06-26T00:25:53.690Z,40.90
2019-06-26T00:28:19.864Z,42.41
2019-06-26T00:30:46.042Z,41.65
2019-06-26T00:33:12.196Z,40.42
2019-06-26T00:35:38.390Z,41.25
2019-06-26T00:38:04.572Z,41.39
2019-06-26T00:40:30.754Z,41.99
2019-06-26T00:42:56.941Z,40.89
2019-06-26T00:45:23.097Z,40.56
2019-06-26T00:47:49.279Z,41.65
2019-06-26T00:50:15.567Z,40.78
2019-06-26T00:52:41.858Z,39.17
2019-06-26T00:55:08.381Z,39.02
2019-06-26T00:57:34.574Z,38.43
2019-06-26T01:00:02.627Z,38.49
2019-06-26T01:02:28.833Z,38.93
2019-06-26T01:04:59.709Z,38.56
2019-06-26T01:07:25.866Z,38.67
2019-06-26T01:09:52.038Z,39.21
2019-06-26T01:12:18.228Z,38.71
2019-06-26T01:14:44.375Z,39.78
2019-06-26T01:17:10.554Z,41.06
2019-06-26T01:19:37.069Z,41.10
2019-06-26T01:22:03.493Z,41.03
2019-06-26T01:24:29.672Z,40.53
2019-06-26T01:26:55.985Z,39.48
2019-06-26T01:29:22.134Z,39.04
2019-06-26T01:31:48.321Z,39.31
2019-06-26T01:34:14.521Z,40.39
2019-06-26T01:36:40.669Z,39.50
2019-06-26T01:39:06.844Z,38.98
2019-06-26T01:41:33.081Z,38.63
2019-06-26T01:44:13.684Z,39.33
2019-06-26T01:46:27.369Z,39.17
2019-06-26T01:48:53.567Z,39.99
2019-06-26T01:51:19.747Z,39.26
2019-06-26T01:53:45.969Z,39.24
2019-06-26T01:56:12.257Z,39.55
2019-06-26T01:58:38.416Z,39.63
2019-06-26T02:01:04.687Z,40.89
2019-06-26T02:03:30.893Z,41.43
2019-06-26T02:05:57.042Z,40.33
2019-06-26T02:08:23.314Z,40.89
2019-06-26T02:10:49.592Z,40.57
2019-06-26T02:13:15.797Z,39.37
2019-06-26T02:15:41.993Z,40.58
2019-06-26T02:20:48.947Z,42.81
2019-06-26T02:23:15.164Z,41.99
2019-06-26T02:25:41.337Z,41.63
2019-06-26T02:28:07.487Z,41.87
2019-06-26T02:30:33.699Z,42.31
2019-06-26T02:32:59.856Z,42.01
2019-06-26T02:35:26.004Z,42.94
2019-06-26T02:37:52.206Z,41.04
2019-06-26T02:40:19.076Z,43.09
2019-06-26T02:42:45.231Z,43.79
2019-06-26T02:45:12.022Z,41.77
2019-06-26T02:47:38.204Z,40.54
2019-06-26T02:50:05.681Z,40.08
2019-06-26T02:52:31.903Z,39.96
2019-06-26T02:54:58.136Z,41.02
2019-06-26T02:57:24.348Z,40.54
2019-06-26T02:59:50.581Z,41.50
2019-06-26T03:02:16.851Z,42.22
2019-06-26T03:04:42.994Z,41.40
2019-06-26T03:07:09.263Z,41.43
2019-06-26T03:09:35.416Z,41.01
2019-06-26T03:12:01.618Z,42.10
2019-06-26T03:14:27.845Z,42.67
2019-06-26T03:16:54.002Z,41.23
2019-06-26T03:19:20.164Z,40.37
2019-06-26T03:21:46.531Z,41.03
2019-06-26T03:24:12.758Z,41.13
2019-06-26T03:26:38.927Z,43.10
2019-06-26T03:29:05.253Z,42.50
2019-06-26T03:31:31.366Z,44.00
2019-06-26T03:33:57.527Z,42.35
2019-06-26T03:36:23.744Z,42.18
2019-06-26T03:38:50.034Z,42.27
2019-06-26T03:41:16.173Z,43.33
2019-06-26T03:43:42.358Z,41.56
2019-06-26T03:46:08.603Z,41.27
2019-06-26T03:48:34.825Z,42.77
2019-06-26T03:51:01.166Z,42.79
2019-06-26T03:53:27.599Z,43.38
2019-06-26T03:55:53.968Z,42.87
2019-06-26T03:58:20.183Z,40.56
2019-06-26T04:00:46.385Z,41.65
2019-06-26T04:03:12.550Z,39.52
2019-06-26T04:05:38.765Z,40.38
2019-06-26T04:08:05.166Z,42.06
2019-06-26T04:10:31.520Z,39.45
2019-06-26T04:12:57.720Z,39.73
2019-06-26T04:15:23.953Z,40.92
2019-06-26T04:17:50.108Z,40.03
2019-06-26T04:20:16.347Z,39.94
2019-06-26T04:22:42.660Z,40.66
2019-06-26T04:25:08.896Z,42.35
2019-06-26T04:27:35.108Z,39.48
2019-06-26T04:30:01.331Z,39.78
2019-06-26T04:32:27.478Z,38.76
2019-06-26T04:34:54.627Z,39.51
2019-06-26T04:37:21.029Z,39.57
2019-06-26T04:39:47.189Z,38.52
2019-06-26T04:42:13.386Z,38.94
2019-06-26T04:44:39.614Z,40.35
2019-06-26T04:47:05.770Z,39.62
2019-06-26T04:49:32.073Z,38.26
2019-06-26T04:51:58.294Z,39.84
2019-06-26T04:54:24.455Z,39.11
2019-06-26T04:56:50.666Z,38.90
2019-06-26T04:59:16.993Z,38.89
2019-06-26T05:01:43.224Z,38.75
2019-06-26T05:04:09.500Z,36.95
2019-06-26T05:06:35.732Z,38.41
2019-06-26T05:09:01.991Z,40.19
2019-06-26T05:11:28.186Z,39.60
2019-06-26T05:13:54.449Z,37.52
2019-06-26T05:16:20.799Z,36.48
2019-06-26T05:18:47.072Z,35.56
2019-06-26T05:21:13.239Z,38.03
2019-06-26T05:23:39.483Z,38.45
2019-06-26T05:26:05.650Z,39.04
2019-06-26T05:28:31.923Z,38.48
2019-06-26T05:30:58.148Z,38.03
2019-06-26T05:33:24.591Z,36.57
2019-06-26T05:35:50.805Z,37.07
2019-06-26T05:38:16.961Z,35.92
2019-06-26T05:40:43.153Z,36.00
2019-06-26T05:43:09.386Z,32.98
2019-06-26T05:45:35.545Z,33.32
2019-06-26T05:48:01.766Z,35.94
2019-06-26T05:50:28.539Z,35.98
2019-06-26T05:52:54.689Z,35.16
2019-06-26T05:55:20.871Z,33.96
2019-06-26T05:57:48.502Z,34.74
2019-06-26T06:00:15.793Z,35.48
2019-06-26T06:02:41.967Z,34.58
2019-06-26T06:05:08.977Z,36.05
2019-06-26T06:07:35.103Z,36.52
2019-06-26T06:10:01.487Z,40.09
2019-06-26T06:12:27.660Z,38.37
2019-06-26T06:14:53.836Z,36.89
2019-06-26T06:17:20.033Z,36.36
2019-06-26T06:19:46.194Z,34.88
2019-06-26T06:22:12.365Z,33.63
2019-06-26T06:24:38.576Z,33.53
2019-06-26T06:27:04.725Z,34.03
2019-06-26T06:29:30.981Z,32.45
2019-06-26T06:31:57.180Z,32.34
2019-06-26T06:34:23.360Z,32.20
2019-06-26T06:36:49.543Z,32.62
2019-06-26T06:39:15.741Z,32.76
2019-06-26T06:41:43.452Z,32.26
2019-06-26T06:44:09.972Z,32.12
2019-06-26T06:46:36.164Z,32.91
2019-06-26T06:49:02.326Z,32.93
2019-06-26T06:51:28.495Z,34.23
2019-06-26T06:53:54.688Z,35.45
2019-06-26T06:56:20.871Z,34.93
2019-06-26T06:58:47.102Z,35.13
2019-06-26T07:01:13.286Z,33.20
2019-06-26T07:03:39.462Z,33.32
2019-06-26T07:06:05.627Z,33.85
2019-06-26T07:08:31.825Z,34.39
2019-06-26T07:10:58.202Z,34.74
2019-06-26T07:13:24.377Z,33.27
2019-06-26T07:15:50.810Z,31.07
2019-06-26T07:18:17.150Z,31.25
2019-06-26T07:20:44.702Z,31.75
2019-06-26T07:23:11.240Z,29.26
2019-06-26T07:25:37.431Z,28.65
2019-06-26T07:28:03.642Z,28.12
2019-06-26T07:30:29.908Z,29.61
2019-06-26T07:32:56.092Z,33.79
2019-06-26T07:35:22.349Z,34.48
2019-06-26T07:37:48.646Z,33.19
2019-06-26T07:40:15.923Z,30.91
2019-06-26T07:42:42.401Z,30.54
2019-06-26T07:45:09.789Z,29.95
2019-06-26T07:47:43.356Z,29.82
2019-06-26T07:50:05.324Z,33.03
2019-06-26T07:52:31.637Z,29.61
2019-06-26T07:54:57.781Z,28.44
2019-06-26T07:57:23.935Z,30.81
2019-06-26T07:59:50.215Z,30.97
2019-06-26T08:02:16.373Z,31.12
2019-06-26T08:04:42.547Z,33.12
2019-06-26T08:07:08.764Z,30.67
2019-06-26T08:09:34.901Z,29.60
2019-06-26T08:12:01.078Z,30.81
2019-06-26T08:14:27.269Z,29.96
2019-06-26T08:16:53.597Z,29.41
2019-06-26T08:19:19.779Z,29.17
2019-06-26T08:21:46.844Z,28.92
2019-06-26T08:24:13.290Z,28.67
2019-06-26T08:26:39.509Z,28.85
2019-06-26T08:29:05.768Z,28.90
2019-06-26T08:31:31.921Z,30.58
2019-06-26T08:34:00.511Z,33.30
2019-06-26T08:36:26.771Z,32.38
2019-06-26T08:38:52.928Z,30.44
2019-06-26T08:41:19.122Z,29.27
2019-06-26T08:43:45.289Z,30.31
2019-06-26T08:46:11.443Z,30.47
2019-06-26T08:48:40.259Z,29.82
2019-06-26T08:51:05.720Z,30.22
2019-06-26T08:53:31.868Z,31.25
2019-06-26T08:55:58.025Z,29.07
2019-06-26T08:58:24.234Z,29.17
2019-06-26T09:00:50.562Z,29.05
2019-06-26T09:03:16.754Z,27.31
2019-06-26T09:05:48.122Z,27.98
2019-06-26T09:08:11.168Z,26.50
2019-06-26T09:10:37.473Z,26.03
2019-06-26T09:13:04.643Z,25.20
2019-06-26T09:15:30.819Z,26.05
2019-06-26T09:17:57.057Z,27.35
2019-06-26T09:20:37.978Z,27.48
2019-06-26T09:23:04.137Z,29.58
2019-06-26T09:25:30.300Z,27.22
2019-06-26T09:27:56.497Z,25.21
2019-06-26T09:30:22.650Z,27.25
2019-06-26T09:32:48.815Z,26.41
2019-06-26T09:35:15.019Z,26.72
2019-06-26T09:37:41.266Z,26.55
2019-06-26T09:40:08.544Z,28.91
2019-06-26T09:42:37.806Z,31.01
2019-06-26T09:45:05.666Z,29.72
2019-06-26T09:47:31.833Z,26.89
2019-06-26T09:49:58.057Z,28.04
2019-06-26T09:52:24.217Z,29.08
2019-06-26T09:54:50.368Z,27.44
2019-06-26T09:57:16.581Z,26.30
2019-06-26T09:59:43.723Z,27.80
2019-06-26T10:02:09.980Z,27.33
2019-06-26T10:04:36.182Z,27.43
2019-06-26T10:07:02.336Z,27.45
2019-06-26T10:09:28.501Z,30.28
2019-06-26T10:11:54.895Z,26.50
2019-06-26T10:14:21.064Z,26.95
2019-06-26T10:16:47.222Z,29.15
2019-06-26T10:19:13.930Z,27.78
2019-06-26T10:21:40.066Z,26.28
2019-06-26T10:24:06.229Z,26.08
2019-06-26T10:26:32.803Z,25.37
2019-06-26T10:28:59.230Z,24.56
2019-06-26T10:31:25.393Z,23.80
2019-06-26T10:33:51.615Z,25.93
2019-06-26T10:36:17.798Z,27.07
2019-06-26T10:38:43.963Z,26.09
2019-06-26T10:41:10.180Z,26.80
2019-06-26T10:43:36.356Z,26.67
2019-06-26T10:46:03.623Z,28.12
2019-06-26T10:48:29.929Z,26.57
2019-06-26T10:50:58.837Z,23.50
2019-06-26T10:53:24.264Z,25.05
2019-06-26T10:55:50.476Z,24.42
2019-06-26T10:58:16.649Z,26.14
2019-06-26T11:00:42.825Z,25.80
2019-06-26T11:03:09.033Z,23.87
2019-06-26T11:05:35.221Z,26.21
2019-06-26T11:08:01.378Z,27.69
2019-06-26T11:10:27.592Z,27.17
2019-06-26T11:12:53.778Z,26.49
2019-06-26T11:15:19.952Z,25.63
2019-06-26T11:17:46.196Z,25.93
2019-06-26T11:20:12.871Z,25.08
2019-06-26T11:22:39.287Z,23.68
2019-06-26T11:25:06.427Z,24.48
2019-06-26T11:27:32.610Z,24.59
2019-06-26T11:29:58.765Z,26.80
2019-06-26T11:32:26.824Z,26.08
2019-06-26T11:34:53.022Z,26.74
2019-06-26T11:37:22.816Z,28.66
2019-06-26T11:39:47.482Z,27.59
2019-06-26T11:42:13.700Z,27.18
2019-06-26T11:44:39.922Z,26.05
2019-06-26T11:47:09.168Z,29.06
2019-06-26T11:49:35.325Z,26.00
2019-06-26T11:52:01.522Z,26.46
2019-06-26T11:54:27.812Z,24.11
2019-06-26T11:56:53.980Z,23.28
2019-06-26T11:59:20.128Z,21.60
2019-06-26T12:01:46.346Z,21.98
2019-06-26T12:04:12.584Z,21.07
2019-06-26T12:06:38.721Z,22.75
2019-06-26T12:09:06.635Z,22.57
2019-06-26T12:11:32.918Z,22.64
2019-06-26T12:13:59.093Z,24.06
2019-06-26T12:16:25.302Z,24.40
2019-06-26T12:18:51.452Z,30.47
2019-06-26T12:21:17.620Z,30.90
2019-06-26T12:23:47.418Z,31.97
2019-06-26T12:26:13.877Z,33.49
2019-06-26T12:28:43.015Z,34.00
2019-06-26T12:31:09.195Z,34.74
2019-06-26T12:33:35.386Z,35.33
2019-06-26T12:36:01.541Z,32.75
2019-06-26T12:38:27.744Z,30.14
2019-06-26T12:40:53.905Z,31.31
2019-06-26T12:43:20.263Z,32.56
2019-06-26T12:45:46.502Z,32.41
2019-06-26T12:48:16.013Z,31.35
2019-06-26T12:50:40.752Z,31.27
2019-06-26T12:53:06.942Z,29.88
2019-06-26T12:55:33.303Z,30.23
2019-06-26T12:58:12.561Z,31.73
2019-06-26T13:00:27.571Z,30.60
2019-06-26T13:02:53.740Z,31.57
2019-06-26T13:05:19.972Z,31.62
2019-06-26T13:07:46.150Z,31.72
2019-06-26T13:10:12.699Z,36.50
2019-06-26T13:12:40.958Z,38.65
2019-06-26T13:15:08.735Z,39.30
2019-06-26T13:17:34.907Z,39.61
2019-06-26T13:20:01.426Z,40.76
2019-06-26T13:22:27.659Z,39.60
2019-06-26T13:24:53.828Z,38.61
2019-06-26T13:27:19.979Z,36.93
2019-06-26T13:29:46.172Z,35.62
2019-06-26T13:32:12.334Z,35.85
2019-06-26T13:34:38.480Z,36.08
2019-06-26T13:37:07.320Z,38.60
2019-06-26T13:39:32.752Z,38.65
2019-06-26T13:41:59.021Z,41.57
2019-06-26T13:44:25.358Z,43.38
2019-06-26T13:46:51.505Z,39.77
2019-06-26T13:49:17.681Z,34.80
2019-06-26T13:51:43.859Z,36.16
2019-06-26T13:54:10.075Z,40.07
2019-06-26T13:56:36.303Z,37.90
2019-06-26T13:59:02.519Z,39.71
2019-06-26T14:01:29.085Z,38.96
2019-06-26T14:03:55.254Z,37.65
2019-06-26T14:06:21.456Z,39.87
2019-06-26T14:08:47.613Z,38.93
2019-06-26T14:11:13.781Z,39.10
2019-06-26T14:13:41.890Z,42.74
2019-06-26T14:16:08.075Z,42.87
2019-06-26T14:18:34.230Z,40.40
2019-06-26T14:21:00.524Z,43.37
2019-06-26T14:23:26.768Z,44.05
2019-06-26T14:25:52.947Z,41.00
2019-06-26T14:28:19.837Z,38.29
2019-06-26T14:30:46.317Z,37.77
2019-06-26T14:33:12.480Z,35.62
2019-06-26T14:35:38.674Z,37.62
2019-06-26T14:38:04.835Z,37.94
2019-06-26T14:40:30.997Z,38.50
2019-06-26T14:42:57.182Z,39.30
2019-06-26T14:45:23.446Z,40.31
2019-06-26T14:47:49.620Z,43.17
2019-06-26T14:50:16.507Z,41.54
2019-06-26T14:52:45.847Z,40.00
2019-06-26T14:55:19.252Z,38.73
2019-06-26T14:57:52.035Z,39.64
2019-06-26T15:00:18.770Z,42.61
2019-06-26T15:02:44.974Z,42.92
2019-06-26T15:05:12.545Z,42.96
2019-06-26T15:07:38.754Z,44.05
2019-06-26T15:10:07.070Z,41.98
2019-06-26T15:12:33.231Z,42.86
2019-06-26T15:14:59.380Z,42.26
2019-06-26T15:17:25.656Z,43.47
2019-06-26T15:19:51.855Z,42.19
2019-06-26T15:22:18.009Z,40.81
2019-06-26T15:24:44.278Z,43.44
2019-06-26T15:27:10.485Z,42.14
2019-06-26T15:29:36.639Z,41.59
2019-06-26T15:32:02.861Z,36.42
2019-06-26T15:34:29.037Z,37.01
2019-06-26T15:36:55.217Z,39.04
2019-06-26T15:39:21.419Z,37.75
2019-06-26T15:41:47.703Z,39.32
2019-06-26T15:44:13.877Z,40.94
2019-06-26T15:46:40.073Z,40.44
2019-06-26T15:49:06.254Z,38.82
2019-06-26T15:51:32.405Z,39.56
2019-06-26T15:54:00.053Z,39.60
2019-06-26T15:56:26.579Z,39.17
2019-06-26T15:58:52.741Z,40.60
2019-06-26T16:01:18.955Z,39.76
2019-06-26T16:03:45.142Z,37.36
2019-06-26T16:06:11.316Z,40.90
2019-06-26T16:08:37.559Z,39.21
2019-06-26T16:11:03.713Z,37.75
2019-06-26T16:13:29.857Z,36.65
2019-06-26T16:15:56.083Z,34.68
2019-06-26T16:18:26.914Z,34.83
2019-06-26T16:20:53.063Z,37.03
2019-06-26T16:23:19.476Z,36.41
2019-06-26T16:25:45.646Z,34.99
2019-06-26T16:28:11.807Z,33.12
2019-06-26T16:30:38.021Z,32.06
2019-06-26T16:33:04.212Z,34.31
2019-06-26T16:35:30.367Z,34.63
2019-06-26T16:37:56.557Z,34.02
2019-06-26T16:40:22.731Z,33.19
2019-06-26T16:42:49.006Z,34.29
2019-06-26T16:45:15.703Z,35.88
2019-06-26T16:47:41.869Z,35.13
2019-06-26T16:50:08.224Z,35.16
2019-06-26T16:52:47.905Z,36.96
2019-06-26T16:55:04.829Z,35.18
2019-06-26T16:57:31.005Z,37.27
2019-06-26T17:00:08.838Z,37.33
2019-06-26T17:02:25.235Z,35.89
2019-06-26T17:04:51.424Z,34.74
2019-06-26T17:07:18.399Z,36.01
2019-06-26T17:09:44.577Z,37.19
2019-06-26T17:12:10.745Z,38.22
2019-06-26T17:14:37.057Z,40.70
2019-06-26T17:17:03.235Z,37.61
2019-06-26T17:19:29.387Z,37.16
2019-06-26T17:21:55.572Z,35.05
2019-06-26T17:24:21.757Z,33.14
2019-06-26T17:26:47.910Z,32.31
2019-06-26T17:29:14.114Z,31.42
2019-06-26T17:31:40.312Z,30.95
2019-06-26T17:34:09.015Z,30.89
2019-06-26T17:36:35.198Z,32.59
2019-06-26T17:39:01.379Z,32.04
2019-06-26T17:41:27.568Z,32.17
2019-06-26T17:43:53.756Z,31.93
2019-06-26T17:46:19.927Z,31.77
2019-06-26T17:48:46.082Z,31.87
2019-06-26T17:51:12.328Z,31.95
2019-06-26T17:53:38.522Z,32.33
2019-06-26T17:56:04.877Z,32.82
2019-06-26T17:58:33.636Z,33.20
2019-06-26T18:00:59.891Z,32.15
2019-06-26T18:03:26.075Z,32.94
2019-06-26T18:05:52.533Z,32.67
2019-06-26T18:08:19.018Z,32.59
2019-06-26T18:10:47.209Z,32.19
2019-06-26T18:13:13.381Z,33.37
2019-06-26T18:15:39.525Z,33.39
2019-06-26T18:18:05.697Z,33.82
2019-06-26T18:20:31.910Z,33.70
2019-06-26T18:23:07.047Z,34.07
2019-06-26T18:25:26.378Z,33.95
2019-06-26T18:27:52.599Z,34.33
2019-06-26T18:30:22.471Z,35.45
2019-06-26T18:32:47.209Z,35.98
2019-06-26T18:35:13.402Z,36.39
2019-06-26T18:37:39.686Z,36.07
2019-06-26T18:40:06.563Z,35.52
2019-06-26T18:42:32.755Z,35.96
2019-06-26T18:44:58.929Z,35.95
2019-06-26T18:47:25.084Z,36.55
2019-06-26T18:49:51.271Z,36.91
2019-06-26T18:52:17.442Z,36.98
2019-06-26T18:54:43.612Z,36.28
2019-06-26T18:57:09.802Z,36.91
2019-06-26T18:59:35.955Z,37.93
2019-06-26T19:02:02.260Z,38.35
2019-06-26T19:04:28.447Z,39.52
2019-06-26T19:06:54.622Z,39.77
2019-06-26T19:09:20.794Z,41.54
2019-06-26T19:11:47.033Z,41.43
2019-06-26T19:14:13.194Z,40.60
2019-06-26T19:16:39.365Z,40.09
2019-06-26T19:19:05.575Z,39.80
2019-06-26T19:21:31.732Z,40.13
2019-06-26T19:24:09.736Z,39.06
2019-06-26T19:26:26.302Z,41.59
2019-06-26T19:28:52.456Z,40.93
2019-06-26T19:31:18.632Z,38.87
2019-06-26T19:33:45.736Z,39.13
2019-06-26T19:36:12.108Z,39.19
2019-06-26T19:38:38.265Z,38.05
2019-06-26T19:41:08.218Z,37.16
2019-06-26T19:43:32.579Z,37.15
2019-06-26T19:45:58.801Z,40.56
2019-06-26T19:48:25.002Z,40.79
2019-06-26T19:50:51.162Z,40.26
2019-06-26T19:53:17.334Z,40.26
2019-06-26T19:55:43.522Z,39.81
2019-06-26T19:58:09.677Z,40.40
2019-06-26T20:00:35.863Z,39.26
2019-06-26T20:03:02.050Z,37.67
2019-06-26T20:05:28.727Z,38.49
2019-06-26T20:07:56.226Z,40.15
2019-06-26T20:10:27.326Z,37.82
2019-06-26T20:13:00.739Z,36.76
2019-06-26T20:15:27.985Z,36.20
2019-06-26T20:17:54.756Z,36.56
2019-06-26T20:20:23.768Z,36.18
2019-06-26T20:22:50.957Z,35.88
2019-06-26T20:25:22.659Z,35.37
2019-06-26T20:27:49.659Z,35.32
2019-06-26T20:30:21.419Z,35.19
2019-06-26T20:32:48.628Z,35.83
2019-06-26T20:35:15.266Z,37.92
2019-06-26T20:37:43.897Z,37.70
2019-06-26T20:40:14.355Z,37.46
2019-06-26T20:42:43.165Z,37.54
2019-06-26T20:45:15.217Z,39.53
2019-06-26T20:47:42.728Z,38.94
2019-06-26T20:50:09.907Z,39.79
2019-06-26T20:52:37.986Z,38.93
2019-06-26T20:55:08.149Z,38.84
2019-06-26T20:57:42.666Z,39.44
2019-06-26T21:00:11.059Z,38.80
2019-06-26T21:02:43.477Z,39.09
2019-06-26T21:05:12.355Z,38.73
2019-06-26T21:10:31.387Z,37.37
2019-06-26T21:13:04.333Z,37.39
2019-06-26T21:15:31.536Z,39.00
2019-06-26T21:18:01.525Z,38.83
2019-06-26T21:20:30.383Z,37.74
2019-06-26T21:23:00.225Z,38.01
2019-06-26T21:25:26.633Z,37.30
2019-06-26T21:27:54.799Z,37.48
2019-06-26T21:30:22.166Z,37.81
2019-06-26T21:32:51.633Z,37.38
2019-06-26T21:35:19.899Z,37.48
2019-06-26T21:37:47.965Z,37.04
2019-06-26T21:40:16.107Z,37.08
2019-06-26T21:42:42.622Z,36.75
2019-06-26T21:45:09.355Z,37.83
2019-06-26T21:47:40.564Z,37.61
2019-06-26T21:50:11.301Z,37.13
2019-06-26T21:52:37.605Z,37.56
2019-06-26T21:55:09.481Z,37.64
2019-06-26T21:57:38.725Z,37.29
2019-06-26T22:00:09.455Z,37.13
2019-06-26T22:02:35.823Z,37.03
2019-06-26T22:05:09.723Z,36.75
2019-06-26T22:07:35.912Z,37.13
2019-06-26T22:10:05.499Z,37.08
2019-06-26T22:12:31.668Z,36.98
2019-06-26T22:14:57.867Z,37.48
2019-06-26T22:17:24.012Z,37.71
2019-06-26T22:19:50.266Z,37.86
2019-06-26T22:22:16.457Z,37.46
2019-06-26T22:24:42.996Z,37.57
2019-06-26T22:27:09.256Z,37.35
2019-06-26T22:29:35.445Z,37.13
2019-06-26T22:32:01.713Z,37.23
2019-06-26T22:34:27.867Z,37.48
2019-06-26T22:36:54.244Z,38.12
2019-06-26T22:39:20.602Z,37.87
2019-06-26T22:41:46.764Z,38.54
2019-06-26T22:44:13.058Z,38.02
2019-06-26T22:46:39.223Z,37.88
2019-06-26T22:49:05.396Z,37.52
2019-06-26T22:51:31.633Z,37.29
2019-06-26T22:53:57.871Z,37.00
2019-06-26T22:56:24.366Z,36.96
2019-06-26T22:58:50.614Z,37.03
2019-06-26T23:01:16.874Z,36.88
2019-06-26T23:03:43.079Z,37.08
2019-06-26T23:06:09.277Z,38.13
2019-06-26T23:08:35.543Z,38.26
2019-06-26T23:11:01.771Z,38.05
2019-06-26T23:13:27.992Z,38.34
2019-06-26T23:15:54.155Z,38.22
2019-06-26T23:18:20.457Z,38.04
2019-06-26T23:20:46.652Z,38.04
2019-06-26T23:23:12.910Z,37.83
2019-06-26T23:25:39.137Z,37.71
2019-06-26T23:28:05.359Z,38.00
2019-06-26T23:30:31.520Z,37.93
2019-06-26T23:32:57.722Z,37.93
2019-06-26T23:35:24.053Z,38.15
2019-06-26T23:37:50.271Z,37.78
2019-06-26T23:40:16.505Z,37.88
2019-06-26T23:42:42.726Z,37.73
2019-06-26T23:45:09.591Z,37.83
2019-06-26T23:47:35.803Z,38.06
2019-06-26T23:50:03.198Z,38.16
2019-06-26T23:52:29.487Z,38.45
2019-06-26T23:54:55.717Z,38.35
2019-06-26T23:57:21.910Z,38.37
2019-06-26T23:59:48.171Z,38.15
